Weather at Ursel Air Base

Public forecast

Using degrees Celsius for public forecast. Weather courtesy of forecast.io.

Closest aviation weather report (METAR) to Ursel Air Base

Closest report is Oostende-Brugge International Airport, 22.9 nm (42.3 km) W.

2024/05/25 16:20 (retrieved 11 minutes ago)

EBOS 251620Z 31005KT 270V350 9999 FEW024 16/10 Q1017 NOSIG

Closest aviation forecast (TAF) to Ursel Air Base

Closest forecast is Oostende-Brugge International Airport, 22.9 nm (42.3 km) W.

2024/05/25 12:27 (retrieved 4 hours ago)

TAF EBOS 251120Z 2512/2618 29007KT 9999 SCT035 PROB30 TEMPO 2604/2607 4000 RA PROB30 TEMPO 2611/2615 20015G25KT 4000 SHRA TSRA BKN020CB